St Cloud Regional Airport
KSTC : now visible

Airfield :











YOU CAN JOIN US ON...

 
LOGIN :

Register | Disclaimer

   EN    FR    IT 

 









Legend :    VFR   Marginal VFR   IFR   Intensive IFR   Very Intensive IFR
Visi :
Ceiling :
>= 8 km
>= 3000ft
5 to 8 km
1000 to 3000 ft
1500m to 5 km
500 to 1000 ft
800 to 1500m
200 to 500 ft
< 800m
< 200 ft
Symbols :   Thunderstorms  Fog  Heavy snow  Heavy precipitations  Wind > 20 kt







- Airport Elevation : 1031 ft
- IATA code : STC


KSTC - St Cloud Regional

CURRENT METAR :
  • 230553Z AUTO 22005KT 10SM CLR 12/11 A2991 RMK AO2 SLP137 T01220106 10150 20122 401610122 51002 $

EXPIRED METARs :
  • 230453Z AUTO 21005KT 10SM BKN070 13/11 A2991 RMK AO2 SLP136 T01280111 $
  • 230353Z 22005KT 10SM CLR 13/12 A2991 RMK AO2 SLP136 T01330117 $

TAF KSTC
Valid from the 23 at 06:00 until the 24 at 06:00 UTC


230520Z 2306/2406 22003KT P6SM SCT150
FM231400 25005KT P6SM FEW250
No reported NOTAMs for that airfield.



MET'MAP, your aeronautical weather chart ! - Copyright ORBIFLY December 2007 - Disclaimer

ORBIFLY MET'MAP TEAM :

Programming & Development : Alexandra Zaïnal
Concept & Development : Baudouin d'Aumeries
Co-Development & Prog : Marc-Olivier Méhu
Technical & hardware support : Manuel Goepfert

Contact : metmap@orbifly.com




SOURCES & CREDITS :

   NOAA       Earth
Advisory